Item Display Status Serial CT Sensor

Mooring Depth: 1 m

 

Deployed Sensor

  • Serial Number: 12885
  • NDBC Property Number: 39264
  • Start Date: 3/6/2015 (13:37:55 Z)
  • End Date: 3/21/2016 (15:24:00 Z)
Water Temperature [°C]     6 entries per hour
Showing data from 3/21/2016 (11:00:00 Z) to 3/20/2016 (00:00:01 Z)
Previous Next [ Day | 3-Days | 7-Days ]
First Last
Prev [ Day | 3-Days | 7-Days ] Next
First Last

Start Time:     :
End Time:     :     
Time (in GMT) :00 :50 :40 :30 :20 :10
Previous Next [ Day | 3-Days | 7-Days ]
First Last
Prev [ Day | 3-Days | 7-Days ] Next
First Last


123 => good data
MM => data is determined as missing
-- => data not received/configured
Back to Top Back to Top
3/21/2016 11:00 to 10:10 28.041 28.044 28.049 28.048 28.047 28.048
3/21/2016 10:00 to 9:10 28.050 28.053 28.050 28.055 28.056 28.056
3/21/2016 09:00 to 8:10 28.056 28.059 28.059 28.058 28.057 28.056
3/21/2016 08:00 to 7:10 28.062 28.061 28.064 28.055 28.068 28.058
3/21/2016 07:00 to 6:10 28.061 28.058 28.071 28.067 28.064 28.071
3/21/2016 06:00 to 5:10 28.075 28.073 28.069 28.069 28.079 28.079
3/21/2016 05:00 to 4:10 28.076 28.076 28.080 28.076 28.082 28.084
3/21/2016 04:00 to 3:10 28.081 28.084 28.085 28.079 28.089 28.086
3/21/2016 03:00 to 2:10 28.089 28.090 28.086 28.095 28.092 28.093
3/21/2016 02:00 to 1:10 28.090 28.099 28.097 28.094 28.099 28.103
3/21/2016 01:00 to 0:10 28.100 28.103 28.100 28.103 28.106 28.107
3/21/2016 00:00 to 23:10 28.113 28.111 28.118 28.118 28.113 28.125
3/20/2016 23:00 to 22:10 28.119 28.118 28.117 28.110 28.113 28.117
3/20/2016 22:00 to 21:10 28.123 28.114 28.121 28.118 28.120 28.119
3/20/2016 21:00 to 20:10 28.121 28.119 28.127 28.120 28.121 28.120
3/20/2016 20:00 to 19:10 28.121 28.111 28.114 28.115 28.100 28.102
3/20/2016 19:00 to 18:10 28.108 28.099 28.096 28.091 28.093 28.090
3/20/2016 18:00 to 17:10 28.086 28.082 28.082 28.077 28.073 28.074
3/20/2016 17:00 to 16:10 28.072 28.073 28.071 28.069 28.069 28.066
3/20/2016 16:00 to 15:10 28.064 28.066 28.065 28.062 28.063 28.059
3/20/2016 15:00 to 14:10 28.059 28.057 28.057 28.061 28.059 28.056
3/20/2016 14:00 to 13:10 28.058 28.060 28.059 28.061 28.063 28.060
3/20/2016 13:00 to 12:10 28.064 28.054 28.060 28.061 28.066 28.065
3/20/2016 12:00 to 11:10 28.063 28.066 28.073 28.067 28.071 28.076
3/20/2016 11:00 to 10:10 28.081 28.078 28.079 28.074 28.071 28.074
3/20/2016 10:00 to 9:10 28.081 28.075 28.079 28.081 28.079 28.084
3/20/2016 09:00 to 8:10 28.080 28.084 28.085 28.082 28.086 28.087
3/20/2016 08:00 to 7:10 28.085 28.085 28.085 28.081 28.082 28.085
3/20/2016 07:00 to 6:10 28.080 28.080 28.087 28.083 28.084 28.089
3/20/2016 06:00 to 5:10 28.092 28.092 28.094 28.090 28.088 28.093
3/20/2016 05:00 to 4:10 28.093 28.090 28.092 28.095 28.095 28.096
3/20/2016 04:00 to 3:10 28.093 28.093 28.098 28.102 28.099 28.098
3/20/2016 03:00 to 2:10 28.105 28.103 28.107 28.106 28.116 28.118
3/20/2016 02:00 to 1:10 28.119 28.123 28.121 28.129 28.130 28.136
3/20/2016 01:00 to 0:10 28.146 28.138 28.142 28.145 28.149 28.147

 

 

 

Conductivity [S/m]     6 entries per hour
Showing data from 3/21/2016 (11:00:00 Z) to 3/20/2016 (00:00:01 Z)
Previous Next [ Day | 3-Days | 7-Days ]
First Last
Prev [ Day | 3-Days | 7-Days ] Next
First Last

Start Time:     :
End Time:     :     
Time (in GMT) :00 :50 :40 :30 :20 :10
Previous Next [ Day | 3-Days | 7-Days ]
First Last
Prev [ Day | 3-Days | 7-Days ] Next
First Last


123 => good data
MM => data is determined as missing
-- => data not received/configured
Back to Top Back to Top
3/21/2016 11:00 to 10:10 5.80596 5.80635 5.80679 5.80553 5.80511 5.80498
3/21/2016 10:00 to 9:10 5.80680 5.80640 5.80549 5.80603 5.80623 5.80608
3/21/2016 09:00 to 8:10 5.80528 5.80638 5.80622 5.80596 5.80528 5.80492
3/21/2016 08:00 to 7:10 5.80564 5.80584 5.80563 5.80484 5.80640 5.80524
3/21/2016 07:00 to 6:10 5.80489 5.80446 5.80609 5.80579 5.80507 5.80565
3/21/2016 06:00 to 5:10 5.80597 5.80617 5.80591 5.80560 5.80599 5.80557
3/21/2016 05:00 to 4:10 5.80564 5.80528 5.80531 5.80540 5.80618 5.80599
3/21/2016 04:00 to 3:10 5.80550 5.80508 5.80531 5.80482 5.80655 5.80505
3/21/2016 03:00 to 2:10 5.80527 5.80489 5.80440 5.80583 5.80463 5.80602
3/21/2016 02:00 to 1:10 5.80475 5.80593 5.80541 5.80424 5.80421 5.80243
3/21/2016 01:00 to 0:10 5.80152 5.80112 5.80093 5.80131 5.80190 5.80158
3/21/2016 00:00 to 23:10 5.80197 5.80072 5.80161 5.80120 5.80078 5.80238
3/20/2016 23:00 to 22:10 5.80172 5.80102 5.80219 5.80102 5.80143 5.80235
3/20/2016 22:00 to 21:10 5.80235 5.80162 5.80283 5.80185 5.80209 5.80176
3/20/2016 21:00 to 20:10 5.80209 5.80152 5.80248 5.80130 5.80160 5.80129
3/20/2016 20:00 to 19:10 5.80162 5.80061 5.80052 5.80132 5.79931 5.79967
3/20/2016 19:00 to 18:10 5.80021 5.79949 5.79902 5.79846 5.79860 5.79778
3/20/2016 18:00 to 17:10 5.79770 5.79722 5.79684 5.79659 5.79589 5.79556
3/20/2016 17:00 to 16:10 5.79573 5.79548 5.79596 5.79521 5.79460 5.79451
3/20/2016 16:00 to 15:10 5.79417 5.79425 5.79461 5.79366 5.79421 5.79387
3/20/2016 15:00 to 14:10 5.79369 5.79306 5.79298 5.79315 5.79381 5.79313
3/20/2016 14:00 to 13:10 5.79357 5.79387 5.79374 5.79391 5.79370 5.79382
3/20/2016 13:00 to 12:10 5.79350 5.79260 5.79313 5.79307 5.79337 5.79301
3/20/2016 12:00 to 11:10 5.79341 5.79340 5.79367 5.79402 5.79486 5.79436
3/20/2016 11:00 to 10:10 5.79472 5.79471 5.79488 5.79378 5.79346 5.79401
3/20/2016 10:00 to 9:10 5.79454 5.79366 5.79327 5.79412 5.79410 5.79457
3/20/2016 09:00 to 8:10 5.79415 5.79467 5.79480 5.79477 5.79462 5.79464
3/20/2016 08:00 to 7:10 5.79430 5.79403 5.79377 5.79345 5.79345 5.79398
3/20/2016 07:00 to 6:10 5.79355 5.79218 5.79389 5.79301 5.79288 5.79371
3/20/2016 06:00 to 5:10 5.79431 5.79346 5.79503 5.79412 5.79439 5.79422
3/20/2016 05:00 to 4:10 5.79398 5.79389 5.79416 5.79427 5.79418 5.79430
3/20/2016 04:00 to 3:10 5.79435 5.79451 5.79505 5.79519 5.79522 5.79515
3/20/2016 03:00 to 2:10 5.79566 5.79554 5.79519 5.79580 5.79617 5.79736
3/20/2016 02:00 to 1:10 5.79747 5.79782 5.79742 5.79855 5.79836 5.79925
3/20/2016 01:00 to 0:10 5.80000 5.79928 5.79980 5.80074 5.80064 5.80053

 

 

 

Salinity [psu]     6 entries per hour
Showing data from 3/21/2016 (11:00:00 Z) to 3/20/2016 (00:00:01 Z)
Previous Next [ Day | 3-Days | 7-Days ]
First Last
Prev [ Day | 3-Days | 7-Days ] Next
First Last

Start Time:     :
End Time:     :     
Time (in GMT) :00 :50 :40 :30 :20 :10
Previous Next [ Day | 3-Days | 7-Days ]
First Last
Prev [ Day | 3-Days | 7-Days ] Next
First Last


123 => good data
MM => data is determined as missing
-- => data not received/configured
Back to Top Back to Top
3/21/2016 11:00 to 10:10 36.26 36.26 36.26 36.25 36.25 36.24
3/21/2016 10:00 to 9:10 36.26 36.25 36.25 36.25 36.25 36.25
3/21/2016 09:00 to 8:10 36.24 36.25 36.24 36.24 36.24 36.24
3/21/2016 08:00 to 7:10 36.24 36.24 36.24 36.24 36.24 36.24
3/21/2016 07:00 to 6:10 36.23 36.23 36.23 36.24 36.23 36.23
3/21/2016 06:00 to 5:10 36.23 36.23 36.23 36.23 36.23 36.22
3/21/2016 05:00 to 4:10 36.23 36.23 36.22 36.23 36.23 36.22
3/21/2016 04:00 to 3:10 36.22 36.22 36.22 36.22 36.22 36.22
3/21/2016 03:00 to 2:10 36.21 36.21 36.21 36.21 36.21 36.22
3/21/2016 02:00 to 1:10 36.21 36.21 36.21 36.20 36.20 36.18
3/21/2016 01:00 to 0:10 36.18 36.17 36.18 36.18 36.18 36.17
3/21/2016 00:00 to 23:10 36.17 36.17 36.17 36.16 36.16 36.17
3/20/2016 23:00 to 22:10 36.17 36.16 36.17 36.17 36.17 36.17
3/20/2016 22:00 to 21:10 36.17 36.17 36.17 36.17 36.17 36.17
3/20/2016 21:00 to 20:10 36.17 36.17 36.17 36.16 36.16 36.16
3/20/2016 20:00 to 19:10 36.16 36.16 36.16 36.17 36.16 36.17
3/20/2016 19:00 to 18:10 36.16 36.17 36.17 36.17 36.17 36.16
3/20/2016 18:00 to 17:10 36.16 36.16 36.16 36.16 36.16 36.16
3/20/2016 17:00 to 16:10 36.16 36.16 36.16 36.16 36.16 36.16
3/20/2016 16:00 to 15:10 36.16 36.15 36.16 36.15 36.16 36.16
3/20/2016 15:00 to 14:10 36.16 36.15 36.15 36.15 36.16 36.15
3/20/2016 14:00 to 13:10 36.16 36.16 36.16 36.16 36.15 36.16
3/20/2016 13:00 to 12:10 36.15 36.15 36.15 36.15 36.15 36.15
3/20/2016 12:00 to 11:10 36.15 36.15 36.15 36.15 36.16 36.15
3/20/2016 11:00 to 10:10 36.15 36.15 36.15 36.15 36.15 36.15
3/20/2016 10:00 to 9:10 36.15 36.14 36.14 36.14 36.14 36.14
3/20/2016 09:00 to 8:10 36.14 36.14 36.14 36.15 36.14 36.14
3/20/2016 08:00 to 7:10 36.14 36.14 36.14 36.14 36.14 36.14
3/20/2016 07:00 to 6:10 36.14 36.13 36.14 36.13 36.13 36.13
3/20/2016 06:00 to 5:10 36.14 36.13 36.14 36.14 36.14 36.13
3/20/2016 05:00 to 4:10 36.13 36.13 36.13 36.13 36.13 36.13
3/20/2016 04:00 to 3:10 36.14 36.14 36.14 36.13 36.14 36.14
3/20/2016 03:00 to 2:10 36.13 36.14 36.13 36.14 36.13 36.14
3/20/2016 02:00 to 1:10 36.14 36.14 36.13 36.14 36.13 36.14
3/20/2016 01:00 to 0:10 36.13 36.13 36.14 36.14 36.14 36.14